Time;durP1;ratioP1;P1;durP2;ratioP2;P2;SDS_P1;SDS_P2;PMS_P1;PMS_P2;Temp;Humidity;BMP_temperature;BMP_pressure;BME280_temperature;BME280_humidity;BME280_pressure;Samples;Min_cycle;Max_cycle;Signal;HPM_P1;HPM_P2
2023/08/09 00:00:26;;;;;;;3.33;1.40;;;13.20;99.90;;;;;;5017305;28;20232;-81
2023/08/09 00:02:53;;;;;;;3.58;1.65;;;13.20;99.90;;;;;;5016809;28;20238;-80
2023/08/09 00:05:20;;;;;;;6.25;2.15;;;13.10;99.90;;;;;;5020251;28;20201;-80
2023/08/09 00:07:48;;;;;;;2.00;1.48;;;13.10;99.90;;;;;;5020851;28;20201;-81
2023/08/09 00:10:14;;;;;;;6.38;2.10;;;13.10;99.90;;;;;;5018842;28;20235;-79
2023/08/09 00:12:41;;;;;;;6.45;2.45;;;13.10;99.90;;;;;;5019839;28;20236;-81
2023/08/09 00:15:09;;;;;;;2.95;1.70;;;13.10;99.90;;;;;;5019944;28;20306;-80
2023/08/09 00:17:36;;;;;;;4.43;2.30;;;13.10;99.90;;;;;;5015595;28;20311;-80
2023/08/09 00:20:04;;;;;;;2.05;1.67;;;13.00;99.90;;;;;;5019814;28;20652;-80
2023/08/09 00:22:31;;;;;;;8.68;2.80;;;13.00;99.90;;;;;;5020769;28;20215;-80
2023/08/09 00:24:59;;;;;;;2.90;2.05;;;12.90;99.90;;;;;;5019587;28;20610;-80
2023/08/09 00:27:28;;;;;;;6.65;2.22;;;13.00;99.90;;;;;;5014186;28;20208;-80
2023/08/09 00:29:55;;;;;;;4.38;1.60;;;12.90;99.90;;;;;;5017804;28;20240;-80
2023/08/09 00:32:22;;;;;;;5.50;2.45;;;13.00;99.90;;;;;;5018156;28;20227;-79
2023/08/09 00:34:49;;;;;;;4.80;2.30;;;12.90;99.90;;;;;;5019178;28;20261;-80
2023/08/09 00:37:16;;;;;;;5.40;2.22;;;12.90;99.90;;;;;;5018325;28;20388;-80
2023/08/09 00:39:42;;;;;;;6.18;2.38;;;13.00;99.90;;;;;;5022132;28;20228;-79
2023/08/09 00:42:11;;;;;;;8.40;2.50;;;13.00;99.90;;;;;;5027156;28;20218;-79
2023/08/09 00:44:37;;;;;;;4.88;2.70;;;12.90;99.90;;;;;;5025794;28;20208;-79
2023/08/09 00:47:06;;;;;;;5.40;2.00;;;12.90;99.90;;;;;;5025804;28;20236;-79
2023/08/09 00:49:33;;;;;;;6.07;2.40;;;12.90;99.90;;;;;;5020757;28;20250;-80
2023/08/09 00:52:00;;;;;;;2.53;2.30;;;12.90;99.90;;;;;;5020706;28;20209;-80
2023/08/09 00:54:31;;;;;;;6.05;2.47;;;12.90;99.90;;;;;;5017649;28;20270;-81
2023/08/09 00:56:58;;;;;;;3.42;2.72;;;12.90;99.90;;;;;;5014769;28;20322;-79
2023/08/09 00:59:29;;;;;;;10.75;2.72;;;12.90;99.90;;;;;;5017581;28;20304;-80
2023/08/09 01:01:59;;;;;;;4.75;2.75;;;12.90;99.90;;;;;;5019332;28;20267;-80
2023/08/09 01:04:29;;;;;;;7.10;3.20;;;12.90;99.90;;;;;;5016369;28;20581;-79
2023/08/09 01:07:03;;;;;;;8.27;3.47;;;12.90;99.90;;;;;;5019669;28;20202;-80
2023/08/09 01:09:44;;;;;;;5.20;3.10;;;12.90;99.90;;;;;;5017879;28;20288;-80
2023/08/09 01:12:12;;;;;;;6.28;3.00;;;12.90;99.90;;;;;;5019658;28;20227;-81
2023/08/09 01:14:43;;;;;;;3.85;3.03;;;12.80;99.90;;;;;;5016887;28;20208;-79
2023/08/09 01:17:13;;;;;;;4.68;2.80;;;12.80;99.90;;;;;;5013824;28;20223;-80
2023/08/09 01:19:48;;;;;;;8.57;3.75;;;12.80;99.90;;;;;;5011484;28;20315;-80
2023/08/09 01:22:20;;;;;;;8.45;3.35;;;12.80;99.90;;;;;;5007668;28;20202;-80
2023/08/09 01:24:49;;;;;;;7.90;4.18;;;12.80;99.90;;;;;;5012340;28;20250;-80
2023/08/09 01:27:16;;;;;;;9.05;3.70;;;12.80;99.90;;;;;;5008747;28;20290;-80
2023/08/09 01:29:44;;;;;;;8.60;4.30;;;12.80;99.90;;;;;;5014062;28;20231;-80
2023/08/09 01:32:12;;;;;;;4.40;3.70;;;12.80;99.90;;;;;;5009805;28;20199;-79
2023/08/09 01:34:39;;;;;;;6.75;3.30;;;12.80;99.90;;;;;;5015442;28;20676;-80
2023/08/09 01:37:15;;;;;;;7.35;4.28;;;12.80;99.90;;;;;;5012285;28;20285;-80
2023/08/09 01:39:42;;;;;;;10.65;4.60;;;12.70;99.90;;;;;;5021126;28;20472;-80
2023/08/09 01:42:12;;;;;;;4.20;3.55;;;12.70;99.90;;;;;;5022698;28;20275;-79
2023/08/09 01:44:41;;;;;;;10.15;4.60;;;12.70;99.90;;;;;;5017873;28;20226;-80
2023/08/09 01:47:08;;;;;;;8.93;4.13;;;12.70;99.90;;;;;;5024371;28;20289;-80
2023/08/09 01:49:45;;;;;;;8.45;5.43;;;12.70;99.90;;;;;;5024935;28;20226;-82
2023/08/09 01:52:13;;;;;;;9.30;4.88;;;12.60;99.90;;;;;;5031227;28;20200;-79
2023/08/09 01:54:41;;;;;;;6.53;4.13;;;12.60;99.90;;;;;;5038327;28;20208;-79
2023/08/09 01:57:12;;;;;;;7.38;5.15;;;12.60;99.90;;;;;;5037496;28;20219;-80
2023/08/09 01:59:39;;;;;;;6.03;4.45;;;12.60;99.90;;;;;;5037131;28;20216;-80
2023/08/09 02:02:09;;;;;;;9.40;5.32;;;12.60;99.90;;;;;;5024054;28;20295;-80
2023/08/09 02:04:36;;;;;;;8.15;5.82;;;12.60;99.90;;;;;;5017974;28;20295;-80
2023/08/09 02:07:03;;;;;;;12.15;6.22;;;12.70;99.90;;;;;;5018222;28;20667;-81
2023/08/09 02:09:30;;;;;;;11.35;6.53;;;12.70;99.90;;;;;;5018897;28;20223;-80
2023/08/09 02:11:57;;;;;;;9.60;5.82;;;12.80;99.90;;;;;;5022675;28;20267;-80
2023/08/09 02:14:26;;;;;;;8.90;6.32;;;12.90;99.90;;;;;;5021148;28;20211;-80
2023/08/09 02:16:52;;;;;;;9.10;6.50;;;13.00;99.90;;;;;;5022111;28;20204;-81
2023/08/09 02:19:19;;;;;;;7.53;6.60;;;13.00;99.90;;;;;;5021825;28;20314;-80
2023/08/09 02:21:46;;;;;;;13.68;6.10;;;12.90;99.90;;;;;;5021972;28;20206;-80
2023/08/09 02:24:13;;;;;;;6.70;5.45;;;12.90;99.90;;;;;;5014934;28;20210;-80
2023/08/09 02:26:42;;;;;;;11.43;6.40;;;12.90;99.90;;;;;;5022636;28;20206;-80
2023/08/09 02:29:09;;;;;;;8.05;6.07;;;12.90;99.90;;;;;;5021706;28;20252;-81
2023/08/09 02:31:37;;;;;;;8.38;5.95;;;12.90;99.90;;;;;;5020598;28;20212;-79
2023/08/09 02:34:04;;;;;;;8.10;5.88;;;12.80;99.90;;;;;;5021502;28;20208;-81
2023/08/09 02:36:31;;;;;;;11.43;6.63;;;12.80;99.90;;;;;;5021825;28;20272;-80
2023/08/09 02:38:58;;;;;;;13.45;6.85;;;12.80;99.90;;;;;;5020591;28;20652;-80
2023/08/09 02:41:25;;;;;;;6.93;5.80;;;12.70;99.90;;;;;;5021821;28;20205;-80
2023/08/09 02:43:51;;;;;;;15.07;6.72;;;12.70;99.90;;;;;;5020504;28;20593;-79
2023/08/09 02:46:18;;;;;;;11.02;7.10;;;12.70;99.90;;;;;;5023335;28;20298;-81
2023/08/09 02:48:46;;;;;;;9.10;7.13;;;12.70;99.90;;;;;;5026184;28;20206;-80
2023/08/09 02:51:13;;;;;;;10.95;6.97;;;12.70;99.90;;;;;;5038591;28;20208;-79
2023/08/09 02:53:59;;;;;;;9.85;6.90;;;12.80;99.90;;;;;;5038759;28;20220;-79
2023/08/09 02:56:26;;;;;;;8.80;6.40;;;12.80;99.90;;;;;;5032651;28;20259;-80
2023/08/09 02:58:53;;;;;;;7.72;5.82;;;12.70;99.90;;;;;;5023618;28;20269;-80
2023/08/09 03:01:21;;;;;;;11.90;7.40;;;12.70;99.90;;;;;;5023657;28;20207;-80
2023/08/09 03:03:50;;;;;;;9.75;5.90;;;12.80;99.90;;;;;;5020125;28;20203;-80
2023/08/09 03:06:18;;;;;;;10.73;7.38;;;12.80;99.90;;;;;;5018397;28;20640;-80
2023/08/09 03:08:45;;;;;;;13.40;7.50;;;12.80;99.90;;;;;;5020378;28;20342;-80
2023/08/09 03:11:12;;;;;;;16.63;7.82;;;12.80;99.90;;;;;;5018044;28;20210;-79
2023/08/09 03:13:39;;;;;;;12.77;6.70;;;12.70;99.90;;;;;;5014067;28;20563;-79
2023/08/09 03:16:06;;;;;;;14.98;8.35;;;12.80;99.90;;;;;;5016898;28;20214;-79
2023/08/09 03:18:33;;;;;;;8.80;5.60;;;12.80;99.90;;;;;;5018232;28;20229;-80
2023/08/09 03:21:01;;;;;;;10.38;7.50;;;12.80;99.90;;;;;;5017656;28;20204;-79
2023/08/09 03:23:28;;;;;;;9.73;6.85;;;12.80;99.90;;;;;;5018023;28;20204;-80
2023/08/09 03:25:55;;;;;;;9.40;7.00;;;12.70;99.90;;;;;;5019264;28;20205;-80
2023/08/09 03:28:22;;;;;;;8.95;7.90;;;12.70;99.90;;;;;;5017879;28;20291;-79
2023/08/09 03:30:49;;;;;;;19.92;9.07;;;12.70;99.90;;;;;;5017288;28;20239;-80
2023/08/09 03:33:16;;;;;;;10.85;7.07;;;12.70;99.90;;;;;;5018536;28;20648;-79
2023/08/09 03:35:42;;;;;;;11.30;8.65;;;12.70;99.90;;;;;;5018621;28;20214;-79
2023/08/09 03:38:11;;;;;;;11.20;9.55;;;12.70;99.90;;;;;;5019117;28;20256;-80
2023/08/09 03:40:37;;;;;;;9.93;8.68;;;12.70;99.90;;;;;;5020220;28;20306;-79
2023/08/09 03:43:04;;;;;;;12.93;8.40;;;12.70;99.90;;;;;;5011580;28;20213;-79
2023/08/09 03:45:31;;;;;;;10.02;8.70;;;12.60;99.90;;;;;;5017631;28;20264;-80
2023/08/09 03:47:58;;;;;;;11.80;8.20;;;12.60;99.90;;;;;;5011513;28;20311;-79
2023/08/09 03:50:25;;;;;;;21.40;9.00;;;12.60;99.90;;;;;;5019156;28;20266;-79
2023/08/09 03:52:52;;;;;;;11.73;8.43;;;12.50;99.90;;;;;;5015864;28;20209;-80
2023/08/09 03:55:21;;;;;;;11.43;8.57;;;12.60;99.90;;;;;;5018849;28;20207;-80
2023/08/09 03:57:47;;;;;;;13.07;9.55;;;12.60;99.90;;;;;;5015767;28;20811;-80
2023/08/09 04:00:17;;;;;;;13.38;9.57;;;12.60;99.90;;;;;;5012117;28;20235;-79
2023/08/09 04:02:44;;;;;;;10.23;9.05;;;12.50;99.90;;;;;;5017921;28;20203;-81
2023/08/09 04:05:12;;;;;;;12.25;8.90;;;12.60;99.90;;;;;;5019112;28;20211;-80
2023/08/09 04:07:39;;;;;;;12.27;9.65;;;12.50;99.90;;;;;;5010706;28;20666;-80
2023/08/09 04:10:08;;;;;;;15.48;9.57;;;12.60;99.90;;;;;;5021273;28;20224;-80
2023/08/09 04:12:36;;;;;;;12.88;9.90;;;12.60;99.90;;;;;;5029501;28;20207;-79
2023/08/09 04:15:04;;;;;;;18.13;9.88;;;12.60;99.90;;;;;;5028768;28;20290;-79
2023/08/09 04:17:33;;;;;;;16.83;10.48;;;12.60;99.90;;;;;;5025350;28;20206;-79
2023/08/09 04:20:00;;;;;;;16.75;9.55;;;12.60;99.90;;;;;;5024614;28;20258;-80
2023/08/09 04:22:28;;;;;;;13.82;9.65;;;12.70;99.90;;;;;;5023717;28;20291;-80
2023/08/09 04:24:54;;;;;;;13.55;8.55;;;12.70;99.90;;;;;;5018809;28;20211;-80
2023/08/09 04:27:22;;;;;;;10.45;8.70;;;12.80;99.90;;;;;;5020724;28;20264;-79
2023/08/09 04:29:51;;;;;;;12.68;9.48;;;12.80;99.90;;;;;;5020679;28;20314;-80
2023/08/09 04:32:17;;;;;;;10.63;9.02;;;12.80;99.90;;;;;;5022143;28;20562;-81
2023/08/09 04:34:44;;;;;;;12.32;9.32;;;12.80;99.90;;;;;;5019415;28;20303;-80
2023/08/09 04:37:11;;;;;;;15.95;8.23;;;12.90;99.90;;;;;;5019717;28;20214;-80
2023/08/09 04:39:38;;;;;;;19.13;9.43;;;12.90;99.90;;;;;;5020619;28;20686;-80
2023/08/09 04:42:05;;;;;;;11.10;7.32;;;13.00;99.90;;;;;;5034129;28;20211;-78
2023/08/09 04:44:32;;;;;;;10.82;7.75;;;13.00;99.90;;;;;;5039171;28;20177;-80
2023/08/09 04:47:03;;;;;;;9.82;8.75;;;13.10;99.90;;;;;;5038528;28;20224;-79
2023/08/09 04:49:30;;;;;;;11.32;8.30;;;13.10;99.90;;;;;;5028063;28;20236;-79
2023/08/09 04:51:57;;;;;;;11.77;7.72;;;13.10;99.90;;;;;;5027822;28;20208;-80
2023/08/09 04:54:24;;;;;;;7.35;6.60;;;13.20;99.90;;;;;;5014511;28;20300;-80
2023/08/09 04:56:53;;;;;;;12.93;6.75;;;13.40;99.90;;;;;;5020342;28;20200;-82
2023/08/09 04:59:20;;;;;;;9.95;7.13;;;13.50;99.90;;;;;;5029085;28;20252;-80
2023/08/09 05:01:47;;;;;;;8.52;5.85;;;13.80;99.90;;;;;;5022468;28;20219;-79
2023/08/09 05:04:15;;;;;;;8.02;5.57;;;14.20;99.90;;;;;;5024521;28;20316;-80
2023/08/09 05:06:42;;;;;;;6.97;5.25;;;14.70;99.90;;;;;;5023670;28;20213;-82
2023/08/09 05:09:09;;;;;;;6.72;3.97;;;15.40;99.90;;;;;;5021214;28;20282;-79
2023/08/09 05:11:36;;;;;;;6.23;5.30;;;16.20;99.90;;;;;;5022311;28;20204;-79
2023/08/09 05:14:03;;;;;;;6.17;4.03;;;17.10;99.90;;;;;;5022316;28;20507;-79
2023/08/09 05:16:30;;;;;;;8.20;3.63;;;17.90;99.90;;;;;;5021341;28;20475;-80
2023/08/09 05:18:56;;;;;;;6.97;3.17;;;18.90;99.90;;;;;;5022354;28;20487;-80
2023/08/09 05:21:25;;;;;;;6.50;3.40;;;19.50;99.90;;;;;;5020872;28;20900;-80
2023/08/09 05:23:51;;;;;;;6.30;3.70;;;20.00;99.90;;;;;;5021154;28;20487;-79
2023/08/09 05:26:18;;;;;;;4.07;2.70;;;20.50;99.90;;;;;;5018283;28;20891;-80
2023/08/09 05:28:45;;;;;;;7.30;3.37;;;20.60;99.90;;;;;;5022045;28;20840;-80
2023/08/09 05:31:12;;;;;;;7.47;2.60;;;20.70;99.90;;;;;;5022242;28;20443;-79
2023/08/09 05:33:39;;;;;;;7.07;2.60;;;20.50;99.90;;;;;;5023456;28;20486;-79
2023/08/09 05:36:06;;;;;;;9.47;4.50;;;20.90;99.90;;;;;;5022367;28;20468;-79
2023/08/09 05:38:34;;;;;;;6.00;2.90;;;21.10;99.90;;;;;;5032164;28;20487;-80
2023/08/09 05:41:01;;;;;;;6.47;2.90;;;20.70;99.90;;;;;;5026096;28;20470;-81
2023/08/09 05:43:28;;;;;;;5.43;2.60;;;20.30;99.90;;;;;;5032674;28;20448;-80
2023/08/09 05:45:55;;;;;;;5.80;2.37;;;20.50;99.90;;;;;;5032537;28;20451;-80
2023/08/09 05:48:23;;;;;;;12.57;2.60;;;21.00;99.90;;;;;;5029794;28;20462;-81
2023/08/09 05:50:50;;;;;;;4.27;2.10;;;20.80;99.90;;;;;;5029467;28;20431;-81
2023/08/09 05:53:16;;;;;;;5.00;3.07;;;20.80;99.90;;;;;;5037028;28;20466;-82
2023/08/09 05:55:44;;;;;;;7.93;3.20;;;21.20;99.90;;;;;;5030887;28;20534;-81
2023/08/09 05:58:11;;;;;;;5.80;2.23;;;21.70;99.70;;;;;;5031374;28;20463;-81
2023/08/09 06:00:38;;;;;;;5.10;2.63;;;22.70;97.80;;;;;;5032440;28;20471;-84
2023/08/09 06:06:01;;;;;;;4.30;3.37;;;23.00;95.70;;;;;;5018005;28;20513;-81
2023/08/09 06:08:28;;;;;;;8.40;3.13;;;23.20;94.90;;;;;;5035207;28;20467;-84
2023/08/09 06:10:57;;;;;;;5.70;2.60;;;23.30;95.20;;;;;;5036287;28;20448;-81
2023/08/09 06:13:24;;;;;;;4.60;2.43;;;24.00;93.90;;;;;;5025237;28;20462;-82
2023/08/09 06:15:50;;;;;;;6.00;2.77;;;24.30;92.70;;;;;;5030750;28;20432;-83
2023/08/09 06:18:17;;;;;;;8.30;2.73;;;24.20;92.70;;;;;;5024712;28;20514;-81
2023/08/09 06:20:44;;;;;;;5.63;2.40;;;24.10;92.60;;;;;;5029340;28;20454;-83
2023/08/09 06:43:13;;;;;;;3.43;2.00;;;26.50;85.80;;;;;;5279823;23;20499;-81
2023/08/09 06:45:40;;;;;;;3.80;2.30;;;26.90;85.80;;;;;;5003455;28;21802;-81
2023/08/09 06:48:08;;;;;;;10.63;2.87;;;27.00;84.50;;;;;;5007561;28;20809;-84
2023/08/09 06:50:35;;;;;;;5.43;1.87;;;26.90;84.70;;;;;;4992805;28;20454;-85
2023/08/09 06:53:03;;;;;;;4.70;1.90;;;26.90;85.40;;;;;;4989586;28;20473;-81
2023/08/09 06:55:37;;;;;;;4.00;2.20;;;27.50;85.00;;;;;;4988679;28;20528;-82
2023/08/09 06:58:04;;;;;;;4.50;2.07;;;28.10;82.20;;;;;;4988171;28;20457;-83
2023/08/09 07:00:38;;;;;;;4.97;1.87;;;27.80;81.50;;;;;;4992873;28;20501;-81
2023/08/09 07:03:05;;;;;;;5.03;1.80;;;28.10;81.40;;;;;;4999476;28;20441;-79
2023/08/09 07:05:32;;;;;;;5.57;2.27;;;27.80;80.80;;;;;;4997338;28;20473;-79
2023/08/09 07:07:59;;;;;;;5.20;1.60;;;28.30;80.90;;;;;;4995638;28;20955;-83
2023/08/09 07:10:27;;;;;;;3.90;1.70;;;28.60;80.20;;;;;;4985958;28;20528;-81
2023/08/09 07:12:54;;;;;;;6.20;2.17;;;28.50;78.70;;;;;;4984788;28;20461;-82
2023/08/09 07:15:21;;;;;;;5.43;1.80;;;28.50;79.10;;;;;;4978764;28;20552;-79
2023/08/09 07:17:50;;;;;;;3.60;1.97;;;28.40;78.10;;;;;;4985697;28;20442;-79
2023/08/09 07:35:54;;;;;;;4.40;2.43;;;25.90;82.20;;;;;;5097340;22;20512;-80
2023/08/09 07:38:35;;;;;;;3.20;2.07;;;25.30;85.50;;;;;;4983318;28;20456;-81
2023/08/09 07:48:56;;;;;;;;;;;;;;;;;;;;;
2023/08/09 08:57:47;;;;;;;4.83;1.77;;;28.80;74.20;;;;;;5261851;23;20549;-82
2023/08/09 09:00:17;;;;;;;4.90;2.53;;;29.40;73.00;;;;;;5011723;28;20480;-83
2023/08/09 09:02:44;;;;;;;2.87;1.47;;;29.10;72.30;;;;;;4994446;28;20496;-85
2023/08/09 09:05:12;;;;;;;5.80;1.60;;;28.30;73.50;;;;;;4999279;28;20456;-82
2023/08/09 09:07:42;;;;;;;3.13;1.20;;;27.20;75.50;;;;;;4996601;28;20517;-82
2023/08/09 09:10:10;;;;;;;7.70;1.77;;;26.90;77.50;;;;;;5004469;28;20472;-82
2023/08/09 09:12:38;;;;;;;5.77;1.43;;;27.30;78.10;;;;;;4994266;28;20531;-82
2023/08/09 09:15:08;;;;;;;3.43;1.27;;;27.60;76.60;;;;;;4998614;28;20489;-82
2023/08/09 09:17:38;;;;;;;6.30;1.53;;;28.00;76.40;;;;;;5000919;28;20480;-81
2023/08/09 09:20:10;;;;;;;3.47;1.10;;;27.30;74.70;;;;;;5000085;28;20564;-82
2023/08/09 09:22:38;;;;;;;1.60;1.20;;;26.80;75.90;;;;;;5000763;28;20454;-83
2023/08/09 09:25:10;;;;;;;3.90;1.63;;;26.70;75.60;;;;;;5002550;28;20442;-83
2023/08/09 09:27:39;;;;;;;4.80;1.27;;;26.30;76.00;;;;;;5000098;28;20472;-82
2023/08/09 09:30:13;;;;;;;3.50;1.17;;;26.20;77.30;;;;;;4992269;28;21012;-83
2023/08/09 09:32:41;;;;;;;3.13;1.50;;;26.20;77.60;;;;;;4999890;28;20491;-82
2023/08/09 09:35:11;;;;;;;6.93;1.50;;;26.80;77.10;;;;;;4998598;28;20564;-83
2023/08/09 09:37:38;;;;;;;8.40;1.60;;;27.60;75.60;;;;;;4996005;28;20457;-81
2023/08/09 09:40:10;;;;;;;3.30;1.50;;;28.50;73.60;;;;;;5002720;28;20492;-82
2023/08/09 09:42:37;;;;;;;9.90;2.00;;;28.90;71.90;;;;;;5001168;28;20449;-82
2023/08/09 09:45:07;;;;;;;3.13;1.77;;;28.70;71.80;;;;;;5000474;28;20495;-81
2023/08/09 09:47:38;;;;;;;8.53;2.50;;;27.80;72.80;;;;;;5009565;28;20801;-83
2023/08/09 09:50:07;;;;;;;2.80;1.67;;;26.80;74.10;;;;;;4998312;28;20981;-81
2023/08/09 09:52:36;;;;;;;2.07;1.20;;;25.80;75.20;;;;;;5006733;28;20830;-81
2023/08/09 09:55:04;;;;;;;6.07;1.20;;;25.30;77.10;;;;;;5015192;28;20504;-80
2023/08/09 09:57:31;;;;;;;5.57;2.10;;;24.90;77.80;;;;;;5015532;28;20464;-81
2023/08/09 09:59:59;;;;;;;2.73;1.50;;;25.60;78.20;;;;;;5009563;28;20615;-82
2023/08/09 10:02:32;;;;;;;4.63;1.93;;;25.80;77.00;;;;;;5009907;28;20445;-80
2023/08/09 10:05:04;;;;;;;5.97;1.70;;;26.10;78.00;;;;;;5007280;28;20480;-82
2023/08/09 10:07:32;;;;;;;2.00;1.40;;;26.60;76.00;;;;;;5013003;28;20497;-82
2023/08/09 10:10:03;;;;;;;3.60;1.23;;;26.80;75.30;;;;;;5017366;28;20512;-82
2023/08/09 10:12:31;;;;;;;1.97;1.20;;;27.70;74.10;;;;;;5015738;28;20429;-81
2023/08/09 10:15:00;;;;;;;3.07;1.23;;;28.30;72.50;;;;;;5015472;28;20516;-80
2023/08/09 10:17:30;;;;;;;3.00;1.30;;;28.60;71.50;;;;;;5015646;28;20465;-80
2023/08/09 10:20:00;;;;;;;2.57;1.70;;;29.00;71.30;;;;;;5005422;28;20574;-82
2023/08/09 10:22:28;;;;;;;4.10;1.70;;;29.00;69.90;;;;;;4997358;28;20484;-82
2023/08/09 10:24:58;;;;;;;2.17;1.40;;;28.40;69.70;;;;;;5003380;28;20441;-84
2023/08/09 10:27:48;;;;;;;6.37;1.20;;;27.70;71.60;;;;;;4998197;28;20487;-83
2023/08/09 10:30:19;;;;;;;4.13;1.30;;;27.10;73.10;;;;;;4996723;28;20465;-82
2023/08/09 10:32:51;;;;;;;2.97;1.30;;;26.50;73.70;;;;;;4994944;28;20440;-82
2023/08/09 10:35:33;;;;;;;2.30;1.20;;;25.40;75.70;;;;;;5001096;28;20810;-82
2023/08/09 10:38:06;;;;;;;2.60;1.20;;;25.00;77.20;;;;;;4997768;28;20998;-83
2023/08/09 10:40:36;;;;;;;2.97;1.47;;;25.30;77.90;;;;;;4999161;28;20491;-82
2023/08/09 10:43:03;;;;;;;5.40;1.60;;;25.60;75.40;;;;;;5002674;28;20462;-82
2023/08/09 10:45:32;;;;;;;3.13;1.50;;;25.60;75.50;;;;;;5001238;28;20447;-82
2023/08/09 10:48:16;;;;;;;3.87;1.37;;;25.00;76.60;;;;;;5007438;28;20462;-82
2023/08/09 10:50:43;;;;;;;7.33;1.40;;;24.50;78.40;;;;;;4999416;28;20616;-82
2023/08/09 10:53:12;;;;;;;3.27;1.57;;;24.40;79.80;;;;;;5004545;28;20445;-81
2023/08/09 10:55:41;;;;;;;2.57;1.30;;;24.50;79.70;;;;;;4992825;28;20437;-82
2023/08/09 10:58:15;;;;;;;2.13;1.57;;;24.40;78.90;;;;;;5011489;28;20456;-81
2023/08/09 11:00:43;;;;;;;2.03;1.13;;;24.40;77.40;;;;;;5007697;28;20505;-80
2023/08/09 11:03:11;;;;;;;3.00;1.20;;;24.50;77.30;;;;;;5017652;28;20457;-82
2023/08/09 11:05:42;;;;;;;4.20;1.60;;;24.70;76.40;;;;;;5007589;28;20455;-82
2023/08/09 11:08:21;;;;;;;4.40;1.77;;;25.00;76.70;;;;;;5009861;28;20460;-81
2023/08/09 11:10:52;;;;;;;3.57;1.97;;;24.90;76.20;;;;;;5008533;28;20455;-81
2023/08/09 11:13:19;;;;;;;3.77;1.30;;;24.60;77.00;;;;;;4999194;28;20479;-83
2023/08/09 11:15:48;;;;;;;5.20;1.90;;;24.60;77.70;;;;;;5008118;28;20475;-82
2023/08/09 11:18:15;;;;;;;4.90;1.97;;;24.60;77.10;;;;;;5002631;28;20451;-82
2023/08/09 11:20:44;;;;;;;3.20;1.57;;;24.40;77.80;;;;;;5004789;28;20488;-83
2023/08/09 11:23:11;;;;;;;3.97;2.17;;;23.90;79.20;;;;;;5008941;28;20483;-82
2023/08/09 11:25:40;;;;;;;6.33;2.50;;;23.40;80.10;;;;;;4993010;28;20492;-84
2023/08/09 11:28:12;;;;;;;3.13;1.70;;;23.10;81.30;;;;;;5002036;28;20528;-83
2023/08/09 11:30:38;;;;;;;4.03;1.73;;;23.00;81.50;;;;;;4996029;28;20530;-82
2023/08/09 11:33:06;;;;;;;2.73;2.10;;;23.10;80.70;;;;;;5004013;28;20449;-83
2023/08/09 11:35:39;;;;;;;4.83;1.83;;;23.00;80.10;;;;;;4996956;28;20909;-83
2023/08/09 11:38:09;;;;;;;2.83;1.47;;;22.90;82.20;;;;;;4994616;28;20442;-83
2023/08/09 11:40:42;;;;;;;4.40;1.50;;;23.10;80.90;;;;;;5003786;28;20476;-82
2023/08/09 11:43:14;;;;;;;2.13;1.50;;;23.50;80.60;;;;;;5007177;28;20513;-81
2023/08/09 11:45:53;;;;;;;4.40;1.57;;;23.40;80.70;;;;;;5012143;28;20441;-81
2023/08/09 11:48:25;;;;;;;2.60;1.77;;;23.40;82.60;;;;;;5007639;28;20509;-85
2023/08/09 11:51:12;;;;;;;2.47;1.50;;;23.50;80.90;;;;;;4999526;28;20525;-82
2023/08/09 11:53:40;;;;;;;8.27;1.63;;;23.60;79.20;;;;;;4997842;28;20500;-83
2023/08/09 11:56:11;;;;;;;3.67;1.23;;;23.20;77.90;;;;;;5001409;28;20445;-82
2023/08/09 11:58:39;;;;;;;2.20;1.60;;;23.20;79.10;;;;;;5014875;28;20444;-83
2023/08/09 12:01:18;;;;;;;1.60;1.43;;;23.10;80.70;;;;;;5000870;28;20497;-83
2023/08/09 12:03:46;;;;;;;3.57;1.40;;;23.20;81.00;;;;;;5004539;28;20457;-82
2023/08/09 12:06:14;;;;;;;4.90;1.60;;;23.00;81.20;;;;;;5010463;28;20446;-82
2023/08/09 12:08:41;;;;;;;5.53;1.97;;;22.90;81.50;;;;;;5018281;28;20484;-80
2023/08/09 12:11:15;;;;;;;2.93;1.93;;;23.00;81.80;;;;;;5019331;28;20449;-80
2023/08/09 12:13:42;;;;;;;3.60;1.60;;;23.10;81.50;;;;;;5022215;28;20459;-80
2023/08/09 12:16:09;;;;;;;2.90;1.23;;;23.20;82.30;;;;;;5018181;28;20447;-80
2023/08/09 12:18:37;;;;;;;5.00;2.97;;;23.40;82.20;;;;;;5022837;28;20428;-80
2023/08/09 12:21:07;;;;;;;3.07;1.73;;;23.60;81.20;;;;;;5025466;28;20491;-82
2023/08/09 12:23:35;;;;;;;4.17;2.23;;;23.80;81.40;;;;;;5016322;28;20974;-81
2023/08/09 12:26:02;;;;;;;4.57;1.47;;;24.00;80.70;;;;;;5008665;28;20535;-87
2023/08/09 12:28:31;;;;;;;4.10;1.10;;;23.80;80.00;;;;;;5007796;28;20445;-83
2023/08/09 12:30:58;;;;;;;4.30;1.70;;;23.60;80.70;;;;;;5007753;28;20804;-85
2023/08/09 12:33:26;;;;;;;4.70;2.70;;;23.50;81.00;;;;;;5005268;28;20945;-83
2023/08/09 12:35:52;;;;;;;3.03;1.77;;;23.60;81.60;;;;;;5005659;28;20452;-83
2023/08/09 12:38:20;;;;;;;4.40;1.63;;;23.60;81.90;;;;;;5009291;28;20521;-83
2023/08/09 12:40:48;;;;;;;3.80;1.33;;;23.70;80.80;;;;;;5010253;28;20480;-83
2023/08/09 12:43:15;;;;;;;3.13;1.90;;;23.50;80.80;;;;;;5004777;28;20445;-83
2023/08/09 12:45:43;;;;;;;3.90;1.30;;;23.30;80.70;;;;;;5013647;28;20467;-82
2023/08/09 12:48:10;;;;;;;8.83;1.50;;;23.40;81.00;;;;;;5016411;28;20457;-82
2023/08/09 12:50:37;;;;;;;5.80;1.87;;;23.70;81.30;;;;;;5003623;28;20498;-83
2023/08/09 12:53:04;;;;;;;2.20;1.23;;;23.90;79.40;;;;;;5002355;28;20476;-83
2023/08/09 12:55:32;;;;;;;2.07;1.30;;;23.90;78.60;;;;;;5011085;28;20505;-83
2023/08/09 12:57:59;;;;;;;1.60;1.23;;;23.70;78.40;;;;;;5005920;28;20476;-84
2023/08/09 13:00:26;;;;;;;7.10;1.30;;;23.40;78.70;;;;;;5006262;28;20488;-81
2023/08/09 13:02:54;;;;;;;2.40;1.50;;;23.50;79.10;;;;;;5016072;28;20456;-80
2023/08/09 13:05:21;;;;;;;2.47;1.50;;;23.40;78.80;;;;;;5018090;28;20437;-81
2023/08/09 13:07:48;;;;;;;2.60;1.57;;;23.40;79.70;;;;;;5013907;28;20450;-80
2023/08/09 13:10:14;;;;;;;2.03;1.70;;;23.40;81.10;;;;;;5022781;28;20594;-80
2023/08/09 13:12:41;;;;;;;3.50;2.07;;;23.50;80.90;;;;;;5017028;28;20437;-80
2023/08/09 13:15:09;;;;;;;2.77;1.53;;;23.50;80.90;;;;;;5017629;28;20484;-79
2023/08/09 13:17:36;;;;;;;3.70;2.10;;;23.50;80.70;;;;;;5017766;28;20471;-79
2023/08/09 13:20:12;;;;;;;3.57;2.23;;;23.40;80.70;;;;;;5015025;28;20465;-85
2023/08/09 13:22:39;;;;;;;5.00;1.90;;;23.30;80.40;;;;;;5013292;28;20473;-82
2023/08/09 13:25:08;;;;;;;3.73;1.97;;;23.20;79.80;;;;;;5015060;28;20512;-82
2023/08/09 13:27:35;;;;;;;5.70;1.50;;;23.00;80.60;;;;;;5015955;28;20616;-82
2023/08/09 13:30:02;;;;;;;6.70;1.83;;;23.10;80.60;;;;;;5017069;28;20453;-85
2023/08/09 13:32:29;;;;;;;3.50;2.03;;;23.00;80.10;;;;;;5015029;28;20441;-85
2023/08/09 13:34:56;;;;;;;3.80;1.63;;;23.10;81.20;;;;;;5014131;28;20818;-85
2023/08/09 13:37:24;;;;;;;3.37;1.50;;;23.30;80.90;;;;;;5006982;28;20460;-83
2023/08/09 13:39:53;;;;;;;2.73;1.90;;;23.60;81.10;;;;;;5005142;28;20457;-83
2023/08/09 13:42:21;;;;;;;1.93;1.67;;;23.80;81.10;;;;;;5005919;28;20489;-83
2023/08/09 13:44:49;;;;;;;2.80;2.03;;;23.70;79.30;;;;;;5006360;28;20456;-86
2023/08/09 13:47:16;;;;;;;7.07;1.70;;;23.60;79.80;;;;;;4997790;28;20457;-83
2023/08/09 13:49:43;;;;;;;2.97;1.93;;;23.60;80.70;;;;;;5002464;28;20536;-81
2023/08/09 13:52:09;;;;;;;2.93;1.30;;;23.80;80.50;;;;;;5004973;28;20503;-84
2023/08/09 13:54:38;;;;;;;1.70;1.03;;;23.70;81.00;;;;;;5008795;28;20460;-83
2023/08/09 13:57:05;;;;;;;4.73;1.63;;;23.70;80.00;;;;;;5012097;28;20452;-83
2023/08/09 13:59:32;;;;;;;3.27;2.40;;;23.50;80.40;;;;;;5011949;28;20458;-80
2023/08/09 14:01:59;;;;;;;3.70;1.70;;;23.40;81.90;;;;;;5000465;28;21001;-81
2023/08/09 14:04:26;;;;;;;2.73;1.80;;;23.30;82.30;;;;;;5003513;28;20523;-83
2023/08/09 14:06:55;;;;;;;2.50;1.60;;;23.20;82.60;;;;;;5002811;28;20445;-85
2023/08/09 14:09:24;;;;;;;6.03;2.40;;;23.20;82.20;;;;;;5003983;28;20487;-84
2023/08/09 14:11:52;;;;;;;3.10;1.70;;;23.00;83.30;;;;;;4999486;28;20464;-83
2023/08/09 14:14:19;;;;;;;2.73;1.57;;;22.90;84.10;;;;;;5005950;28;20468;-82
2023/08/09 14:16:47;;;;;;;3.97;1.87;;;22.80;84.50;;;;;;5005708;28;20461;-82
2023/08/09 14:19:15;;;;;;;4.63;1.57;;;22.80;84.20;;;;;;5010358;28;20483;-82
2023/08/09 14:21:44;;;;;;;3.37;1.97;;;22.80;84.80;;;;;;5009055;28;20472;-81
2023/08/09 14:24:13;;;;;;;3.70;1.70;;;22.80;84.50;;;;;;5010830;28;20532;-83
2023/08/09 14:26:41;;;;;;;2.93;1.57;;;23.10;84.70;;;;;;5008998;28;20448;-83
2023/08/09 14:29:10;;;;;;;4.07;1.70;;;23.30;84.30;;;;;;5007175;28;20587;-81
2023/08/09 14:31:37;;;;;;;4.43;1.50;;;23.40;83.90;;;;;;5007486;28;20436;-83
2023/08/09 14:34:05;;;;;;;2.53;1.73;;;23.30;83.80;;;;;;5003489;28;20512;-83
2023/08/09 14:36:32;;;;;;;4.60;1.67;;;23.40;84.70;;;;;;5010175;28;20799;-83
2023/08/09 14:39:02;;;;;;;4.13;1.40;;;23.40;84.60;;;;;;5007711;28;20475;-84
2023/08/09 14:41:31;;;;;;;2.27;1.70;;;23.30;83.70;;;;;;5003675;28;20534;-84
2023/08/09 14:43:58;;;;;;;2.90;1.50;;;23.40;83.90;;;;;;5008456;28;20495;-83